Time;durP1;ratioP1;P1;durP2;ratioP2;P2;SDS_P1;SDS_P2;PMS_P1;PMS_P2;Temp;Humidity;BMP_temperature;BMP_pressure;BME280_temperature;BME280_humidity;BME280_pressure;Samples;Min_cycle;Max_cycle;Signal;HPM_P1;HPM_P2
2021/03/08 00:00:47;;;;;;;18.95;11.40;;;4.80;77.10;;;;;;5091384;28;20076;-82
2021/03/08 00:03:16;;;;;;;18.23;11.13;;;4.80;76.10;;;;;;5091448;28;20055;-80
2021/03/08 00:05:44;;;;;;;17.20;11.18;;;4.80;76.60;;;;;;5107585;28;20076;-80
2021/03/08 00:08:12;;;;;;;19.00;11.55;;;4.70;76.70;;;;;;5073694;28;20040;-84
2021/03/08 00:10:40;;;;;;;16.75;10.25;;;4.60;76.50;;;;;;5090411;28;20089;-80
2021/03/08 00:13:07;;;;;;;18.27;10.60;;;4.50;77.20;;;;;;5091466;28;20056;-80
2021/03/08 00:15:34;;;;;;;15.45;9.98;;;4.50;77.90;;;;;;5091301;28;20516;-80
2021/03/08 00:18:01;;;;;;;16.80;10.27;;;4.40;78.00;;;;;;5091533;28;20143;-80
2021/03/08 00:20:31;;;;;;;18.30;10.65;;;4.40;77.30;;;;;;5090367;28;20048;-83
2021/03/08 00:22:58;;;;;;;18.23;10.77;;;4.30;77.10;;;;;;5070769;28;20433;-81
2021/03/08 00:25:27;;;;;;;17.92;11.05;;;4.20;77.70;;;;;;5085927;28;20048;-81
2021/03/08 00:27:55;;;;;;;17.15;10.80;;;4.20;78.70;;;;;;5091351;28;20135;-81
2021/03/08 00:30:23;;;;;;;16.95;10.25;;;4.10;79.10;;;;;;5091062;28;20127;-80
2021/03/08 00:32:50;;;;;;;18.40;10.80;;;4.10;79.20;;;;;;5091139;28;20452;-80
2021/03/08 00:35:17;;;;;;;17.13;10.63;;;4.00;80.20;;;;;;5091274;28;20158;-80
2021/03/08 00:37:45;;;;;;;16.23;9.68;;;4.00;81.30;;;;;;5090920;28;20135;-82
2021/03/08 00:40:15;;;;;;;16.33;9.95;;;4.00;81.50;;;;;;5085865;28;20137;-82
2021/03/08 00:42:44;;;;;;;16.90;10.07;;;4.00;82.30;;;;;;5071307;28;20052;-81
2021/03/08 00:45:15;;;;;;;17.10;10.45;;;4.00;82.30;;;;;;5070998;28;20136;-81
2021/03/08 00:47:42;;;;;;;18.95;10.45;;;4.00;81.50;;;;;;5070612;28;20391;-80
2021/03/08 00:50:14;;;;;;;17.90;10.55;;;4.00;81.90;;;;;;5070844;28;20045;-80
2021/03/08 00:52:41;;;;;;;17.52;10.30;;;3.90;81.50;;;;;;5090736;28;20082;-81
2021/03/08 00:55:09;;;;;;;18.05;10.50;;;3.90;82.00;;;;;;5105464;28;20524;-81
2021/03/08 00:57:36;;;;;;;17.65;10.45;;;3.90;82.40;;;;;;5091098;28;20056;-81
2021/03/08 01:00:05;;;;;;;19.10;11.25;;;3.90;82.40;;;;;;5090623;28;20052;-81
2021/03/08 01:02:33;;;;;;;17.75;11.25;;;3.80;82.00;;;;;;5089448;28;20138;-81
2021/03/08 01:05:00;;;;;;;18.27;10.77;;;3.80;81.70;;;;;;5090453;28;20052;-81
2021/03/08 01:07:26;;;;;;;18.42;11.55;;;3.70;82.10;;;;;;5106551;28;20050;-81
2021/03/08 01:09:53;;;;;;;19.30;11.38;;;3.60;82.70;;;;;;5089161;28;20600;-80
2021/03/08 01:12:20;;;;;;;17.08;10.60;;;3.50;83.50;;;;;;5071389;28;20044;-81
2021/03/08 01:14:47;;;;;;;17.60;11.20;;;3.50;84.10;;;;;;5090111;28;20047;-82
2021/03/08 01:17:14;;;;;;;16.90;10.35;;;3.40;84.60;;;;;;5088750;28;20500;-81
2021/03/08 01:19:42;;;;;;;17.40;10.32;;;3.40;85.50;;;;;;5105732;28;20135;-80
2021/03/08 01:22:09;;;;;;;16.17;10.23;;;3.40;85.90;;;;;;5092278;28;20056;-79
2021/03/08 01:24:35;;;;;;;18.35;11.35;;;3.30;86.30;;;;;;5086480;28;20147;-81
2021/03/08 01:27:02;;;;;;;18.58;11.25;;;3.30;87.10;;;;;;5089811;28;20561;-80
2021/03/08 01:29:28;;;;;;;18.55;10.85;;;3.30;86.40;;;;;;5088729;28;20127;-80
2021/03/08 01:31:55;;;;;;;18.45;11.10;;;3.20;86.90;;;;;;5087907;28;20504;-80
2021/03/08 01:34:22;;;;;;;16.55;10.35;;;3.20;88.00;;;;;;5088708;28;20087;-80
2021/03/08 01:36:49;;;;;;;18.23;11.30;;;3.30;88.40;;;;;;5089596;28;20146;-81
2021/03/08 01:39:16;;;;;;;19.10;11.20;;;3.30;88.60;;;;;;5071565;28;20136;-81
2021/03/08 01:41:43;;;;;;;20.23;11.73;;;3.30;88.70;;;;;;5088339;28;20119;-81
2021/03/08 01:44:09;;;;;;;19.00;10.98;;;3.30;88.90;;;;;;5105139;28;20130;-81
2021/03/08 01:46:37;;;;;;;17.13;10.50;;;3.30;88.70;;;;;;5089898;28;20058;-81
2021/03/08 01:49:04;;;;;;;18.60;11.40;;;3.30;89.00;;;;;;5089941;28;20130;-79
2021/03/08 01:51:31;;;;;;;19.13;11.02;;;3.20;89.00;;;;;;5080388;28;20076;-79
2021/03/08 01:53:59;;;;;;;20.55;11.55;;;3.20;88.30;;;;;;5069815;28;20109;-79
2021/03/08 01:56:26;;;;;;;18.20;10.98;;;3.10;89.00;;;;;;5072232;28;20052;-79
2021/03/08 01:58:53;;;;;;;18.15;11.38;;;3.00;89.30;;;;;;5051834;28;20135;-79
2021/03/08 02:01:20;;;;;;;18.50;11.73;;;3.10;89.70;;;;;;5075152;28;20039;-80
2021/03/08 02:03:46;;;;;;;17.60;10.80;;;3.10;90.00;;;;;;5089526;28;20127;-79
2021/03/08 02:06:14;;;;;;;18.88;11.80;;;3.10;89.90;;;;;;5089302;28;20091;-80
2021/03/08 02:08:41;;;;;;;18.20;11.18;;;3.10;90.00;;;;;;5089965;28;20150;-79
2021/03/08 02:11:09;;;;;;;22.25;11.90;;;3.20;89.60;;;;;;5088215;28;20123;-79
2021/03/08 02:14:22;;;;;;;18.40;10.73;;;3.00;90.00;;;;;;5089047;28;20131;-78
2021/03/08 02:16:57;;;;;;;19.27;11.75;;;3.10;89.90;;;;;;5081121;28;20052;-80
2021/03/08 02:19:53;;;;;;;18.50;11.65;;;3.10;88.60;;;;;;5087527;28;20135;-80
2021/03/08 02:22:56;;;;;;;20.52;11.75;;;3.00;88.20;;;;;;5085272;28;20379;-80
2021/03/08 02:25:36;;;;;;;16.70;10.82;;;2.90;89.10;;;;;;5088961;28;20059;-79
2021/03/08 02:28:46;;;;;;;20.42;11.70;;;2.90;89.80;;;;;;5089059;28;20164;-79
2021/03/08 02:31:16;;;;;;;17.88;10.80;;;2.80;90.60;;;;;;5088574;28;20542;-79
2021/03/08 02:33:53;;;;;;;23.30;12.98;;;2.90;90.40;;;;;;5088791;28;20462;-80
2021/03/08 02:36:27;;;;;;;19.90;11.93;;;2.80;90.00;;;;;;5088826;28;20046;-80
2021/03/08 02:39:02;;;;;;;19.45;11.73;;;2.70;90.50;;;;;;5089081;28;20139;-80
2021/03/08 02:41:30;;;;;;;;;;;2.60;90.30;;;;;;5089560;28;20123;-80
2021/03/08 02:44:00;;;;;;;20.60;12.00;;;2.50;90.50;;;;;;5070720;28;20678;-81
2021/03/08 02:46:32;;;;;;;19.13;11.57;;;2.60;91.20;;;;;;5093494;28;20565;-80
2021/03/08 02:49:02;;;;;;;20.38;11.20;;;2.40;91.90;;;;;;5076603;28;20050;-80
2021/03/08 02:51:31;;;;;;;20.25;11.65;;;2.50;91.90;;;;;;5087301;28;20452;-79
2021/03/08 02:54:00;;;;;;;19.48;10.98;;;2.40;92.10;;;;;;5072860;28;20079;-79
2021/03/08 02:56:32;;;;;;;19.50;11.68;;;2.40;92.20;;;;;;5072783;28;20483;-80
2021/03/08 02:59:01;;;;;;;21.30;11.23;;;2.40;92.40;;;;;;5072597;28;20139;-80
2021/03/08 03:01:29;;;;;;;19.48;10.75;;;2.50;92.50;;;;;;5078577;28;20052;-81
2021/03/08 03:03:58;;;;;;;19.88;11.18;;;2.40;92.50;;;;;;5096214;28;20055;-80
2021/03/08 03:06:32;;;;;;;18.65;11.15;;;2.40;92.70;;;;;;5096928;28;20059;-80
2021/03/08 03:09:03;;;;;;;18.73;11.10;;;2.40;92.60;;;;;;5096128;28;20127;-80
2021/03/08 03:11:31;;;;;;;18.83;11.60;;;2.40;92.60;;;;;;5091110;28;20072;-80
2021/03/08 03:13:59;;;;;;;19.02;11.30;;;2.40;92.10;;;;;;5075984;28;20132;-80
2021/03/08 03:16:27;;;;;;;21.80;12.13;;;2.40;91.80;;;;;;5078122;28;20469;-80
2021/03/08 03:18:56;;;;;;;17.38;10.90;;;2.30;91.50;;;;;;5079719;28;20131;-80
2021/03/08 03:21:28;;;;;;;17.80;10.82;;;2.20;92.00;;;;;;5079639;28;20127;-82
2021/03/08 03:23:55;;;;;;;18.20;10.93;;;2.20;92.60;;;;;;5078565;28;20105;-81
2021/03/08 03:26:23;;;;;;;21.67;11.52;;;2.20;92.90;;;;;;5096440;28;20079;-81
2021/03/08 03:28:50;;;;;;;19.10;11.30;;;2.20;93.10;;;;;;5096167;28;20132;-79
2021/03/08 03:31:21;;;;;;;18.17;10.88;;;2.20;93.10;;;;;;5095153;28;20132;-80
2021/03/08 03:33:49;;;;;;;17.98;10.52;;;2.20;93.00;;;;;;5110004;28;20472;-79
2021/03/08 03:36:17;;;;;;;18.35;11.25;;;2.20;92.80;;;;;;5095843;28;20503;-79
2021/03/08 03:38:45;;;;;;;17.30;10.85;;;2.20;92.70;;;;;;5077897;28;20459;-80
2021/03/08 03:41:13;;;;;;;20.33;11.23;;;2.30;92.50;;;;;;5095866;28;20040;-80
2021/03/08 03:43:39;;;;;;;19.90;10.75;;;2.20;92.40;;;;;;5082183;28;20131;-80
2021/03/08 03:46:06;;;;;;;16.95;10.52;;;2.20;92.60;;;;;;5075944;28;20182;-80
2021/03/08 03:48:33;;;;;;;20.73;11.40;;;2.20;92.70;;;;;;5075710;28;20135;-80
2021/03/08 03:51:01;;;;;;;17.20;10.52;;;2.10;92.70;;;;;;5078958;28;20044;-80
2021/03/08 03:53:28;;;;;;;19.15;11.23;;;2.20;92.70;;;;;;5095781;28;20158;-80
2021/03/08 03:55:55;;;;;;;21.92;12.48;;;2.10;92.40;;;;;;5094406;28;20127;-80
2021/03/08 03:58:28;;;;;;;22.35;12.82;;;2.10;91.80;;;;;;5077693;28;20052;-80
2021/03/08 04:00:58;;;;;;;19.40;11.30;;;2.10;91.30;;;;;;5080823;28;20052;-81
2021/03/08 04:03:30;;;;;;;20.17;11.05;;;2.00;92.10;;;;;;5093790;28;20122;-79
2021/03/08 04:06:00;;;;;;;17.63;10.38;;;1.90;92.30;;;;;;5075516;28;20083;-80
2021/03/08 04:08:29;;;;;;;17.30;10.07;;;1.80;92.50;;;;;;5092847;28;20454;-81
2021/03/08 04:10:58;;;;;;;16.70;10.10;;;1.80;92.80;;;;;;5090519;28;20600;-79
2021/03/08 04:13:31;;;;;;;20.27;11.10;;;1.80;93.10;;;;;;5074540;28;20048;-79
2021/03/08 04:15:59;;;;;;;20.55;12.32;;;1.80;93.20;;;;;;5092981;28;20097;-80
2021/03/08 04:18:28;;;;;;;19.33;11.18;;;1.80;92.90;;;;;;5108482;28;20132;-76
2021/03/08 04:20:58;;;;;;;18.63;10.55;;;1.80;92.80;;;;;;5081777;28;20052;-80
2021/03/08 04:23:27;;;;;;;18.92;11.00;;;1.70;92.70;;;;;;5087018;28;20081;-80
2021/03/08 04:25:54;;;;;;;18.55;11.38;;;1.60;93.00;;;;;;5092293;28;20138;-80
2021/03/08 04:28:23;;;;;;;18.45;11.52;;;1.70;93.00;;;;;;5092328;28;20413;-81
2021/03/08 04:30:50;;;;;;;18.60;10.57;;;1.70;92.60;;;;;;5075014;28;20101;-81
2021/03/08 04:33:18;;;;;;;18.63;11.32;;;1.70;92.70;;;;;;5074916;28;20134;-80
2021/03/08 04:35:47;;;;;;;18.87;10.70;;;1.70;92.30;;;;;;5093618;28;20497;-80
2021/03/08 04:38:15;;;;;;;19.40;10.77;;;1.60;92.20;;;;;;5095547;28;20049;-82
2021/03/08 04:40:43;;;;;;;18.35;10.93;;;1.70;92.70;;;;;;5076755;28;20547;-83
2021/03/08 04:43:10;;;;;;;18.85;11.15;;;1.60;92.40;;;;;;5094022;28;20464;-78
2021/03/08 04:45:38;;;;;;;18.75;10.88;;;1.60;92.50;;;;;;5074060;28;20044;-77
2021/03/08 04:48:06;;;;;;;19.65;10.32;;;1.50;92.70;;;;;;5107728;28;20169;-80
2021/03/08 04:50:33;;;;;;;19.52;11.52;;;1.50;93.10;;;;;;5090313;28;20123;-78
2021/03/08 04:53:01;;;;;;;19.73;11.18;;;1.50;93.30;;;;;;5080570;28;20402;-78
2021/03/08 04:55:30;;;;;;;20.20;10.82;;;1.50;93.20;;;;;;5084601;28;20058;-78
2021/03/08 04:57:59;;;;;;;19.30;11.23;;;1.60;93.10;;;;;;5074128;28;20442;-77
2021/03/08 05:00:26;;;;;;;17.90;11.10;;;1.50;92.80;;;;;;5090113;28;20063;-78
2021/03/08 05:02:56;;;;;;;17.35;10.18;;;1.50;92.60;;;;;;5091980;28;20138;-78
2021/03/08 05:05:25;;;;;;;17.08;10.65;;;1.40;92.90;;;;;;5092119;28;20130;-77
2021/03/08 05:07:58;;;;;;;16.05;9.75;;;1.40;93.20;;;;;;5071032;28;20055;-79
2021/03/08 05:10:27;;;;;;;17.95;10.45;;;1.40;93.40;;;;;;5086731;28;20177;-83
2021/03/08 05:12:55;;;;;;;17.67;10.25;;;1.40;93.60;;;;;;5092114;28;20589;-83
2021/03/08 05:15:25;;;;;;;18.50;11.00;;;1.40;93.70;;;;;;5092319;28;20122;-79
2021/03/08 05:17:56;;;;;;;18.17;10.77;;;1.40;93.70;;;;;;5091701;28;20079;-79
2021/03/08 05:20:24;;;;;;;18.67;10.10;;;1.50;93.60;;;;;;5073230;28;20091;-79
2021/03/08 05:22:50;;;;;;;19.88;11.75;;;1.40;93.60;;;;;;5092023;28;20130;-82
2021/03/08 05:25:20;;;;;;;19.90;11.10;;;1.50;93.50;;;;;;5060768;28;20036;-81
2021/03/08 05:27:48;;;;;;;20.00;10.48;;;1.60;92.90;;;;;;5072338;28;20045;-82
2021/03/08 05:30:18;;;;;;;17.27;10.45;;;1.40;92.90;;;;;;5068711;28;20106;-81
2021/03/08 05:32:53;;;;;;;21.20;11.85;;;1.40;93.00;;;;;;5071431;28;20119;-81
2021/03/08 05:35:21;;;;;;;19.58;11.32;;;1.40;92.40;;;;;;5071529;28;20097;-81
2021/03/08 05:37:48;;;;;;;18.70;11.13;;;1.30;92.10;;;;;;5071220;28;20171;-81
2021/03/08 05:40:29;;;;;;;19.25;10.70;;;1.20;92.60;;;;;;5071324;28;20044;-81
2021/03/08 05:43:03;;;;;;;19.42;10.90;;;1.10;92.40;;;;;;5071638;28;20048;-81
2021/03/08 05:45:35;;;;;;;19.90;10.20;;;1.00;92.50;;;;;;5071163;28;20080;-81
2021/03/08 05:48:24;;;;;;;17.77;10.25;;;1.00;92.70;;;;;;5053484;28;20113;-82
2021/03/08 05:51:51;;;;;;;18.40;10.83;;;1.00;92.80;;;;;;5054100;28;20055;-81
2021/03/08 05:54:54;;;;;;;19.50;10.73;;;0.90;92.90;;;;;;5083590;28;20048;-81
2021/03/08 05:57:41;;;;;;;17.58;10.23;;;0.90;92.80;;;;;;5091432;28;20131;-82
2021/03/08 06:00:46;;;;;;;21.75;11.10;;;0.90;93.10;;;;;;5091255;28;20139;-81
2021/03/08 06:03:33;;;;;;;18.83;11.20;;;0.90;93.30;;;;;;5105176;28;20051;-82
2021/03/08 06:06:44;;;;;;;20.27;10.57;;;0.90;92.70;;;;;;5091677;28;20051;-82
2021/03/08 06:09:23;;;;;;;19.30;10.57;;;0.90;92.70;;;;;;5091323;28;20173;-81
2021/03/08 06:12:00;;;;;;;17.48;10.38;;;0.80;92.90;;;;;;5090894;28;20469;-81
2021/03/08 06:14:34;;;;;;;20.40;10.60;;;0.80;93.00;;;;;;5091584;28;20073;-82
2021/03/08 06:17:02;;;;;;;18.52;11.05;;;0.80;93.20;;;;;;5090839;28;20051;-81
2021/03/08 06:19:31;;;;;;;18.30;10.93;;;0.80;93.40;;;;;;5070806;28;20041;-83
2021/03/08 06:21:59;;;;;;;19.70;10.55;;;0.90;93.30;;;;;;5053196;28;20124;-81
2021/03/08 06:24:27;;;;;;;21.90;11.38;;;0.90;93.40;;;;;;5071275;28;20052;-83
2021/03/08 06:26:56;;;;;;;19.13;11.05;;;1.00;93.20;;;;;;5071330;28;20059;-82
2021/03/08 06:29:23;;;;;;;17.65;10.52;;;0.90;93.00;;;;;;5071245;28;20406;-83
2021/03/08 06:31:52;;;;;;;18.75;10.93;;;0.90;93.20;;;;;;5072940;28;20049;-82
2021/03/08 06:34:18;;;;;;;20.15;11.07;;;1.00;93.30;;;;;;5072831;28;20101;-84
2021/03/08 06:36:47;;;;;;;18.55;10.70;;;0.90;93.60;;;;;;5072492;28;20059;-83
2021/03/08 06:39:14;;;;;;;20.15;11.15;;;1.00;93.50;;;;;;5091127;28;20072;-81
2021/03/08 06:41:41;;;;;;;21.48;12.35;;;1.00;93.20;;;;;;5091064;28;20048;-82
2021/03/08 06:44:08;;;;;;;21.17;11.50;;;1.00;93.00;;;;;;5091459;28;20121;-81
2021/03/08 06:46:35;;;;;;;19.75;11.00;;;0.90;93.50;;;;;;5090753;28;20039;-81
2021/03/08 06:49:03;;;;;;;18.13;11.13;;;0.90;93.70;;;;;;5090811;28;20048;-81
2021/03/08 06:51:30;;;;;;;19.48;11.18;;;0.90;93.90;;;;;;5090994;28;20077;-82
2021/03/08 06:53:57;;;;;;;19.50;11.05;;;0.80;94.00;;;;;;5091109;28;20055;-81
2021/03/08 06:56:25;;;;;;;19.15;10.95;;;0.80;94.30;;;;;;5091100;28;20048;-83
2021/03/08 06:59:07;;;;;;;21.15;11.50;;;0.90;94.50;;;;;;5072395;28;20139;-81
2021/03/08 07:01:36;;;;;;;21.13;11.35;;;1.00;94.50;;;;;;5090921;28;20040;-83
2021/03/08 07:04:11;;;;;;;20.98;11.73;;;1.00;94.70;;;;;;5090474;28;20472;-83
2021/03/08 07:06:38;;;;;;;23.27;12.63;;;1.00;94.70;;;;;;5090763;28;20091;-84
2021/03/08 07:09:08;;;;;;;26.73;14.10;;;1.20;94.80;;;;;;5073209;28;20503;-83
2021/03/08 07:11:35;;;;;;;21.52;12.00;;;1.20;94.70;;;;;;5090603;28;20046;-82
2021/03/08 07:14:02;;;;;;;23.48;13.38;;;1.30;94.70;;;;;;5090796;28;20044;-83
2021/03/08 07:16:38;;;;;;;24.70;12.38;;;1.30;94.60;;;;;;5090339;28;20090;-82
2021/03/08 07:19:06;;;;;;;21.58;11.68;;;1.30;94.90;;;;;;5092353;28;20048;-83
2021/03/08 07:21:33;;;;;;;21.65;12.93;;;1.30;94.90;;;;;;5090610;28;20093;-83
2021/03/08 07:24:18;;;;;;;28.75;15.05;;;1.30;94.60;;;;;;5089889;28;20132;-82
2021/03/08 07:26:53;;;;;;;22.17;13.63;;;1.40;94.40;;;;;;5090236;28;20060;-82
2021/03/08 07:29:22;;;;;;;27.60;13.68;;;1.40;94.30;;;;;;5090764;28;20134;-83
2021/03/08 07:31:50;;;;;;;24.85;13.98;;;1.40;94.30;;;;;;5092357;28;20081;-83
2021/03/08 07:34:19;;;;;;;23.77;13.80;;;1.40;94.40;;;;;;5093865;28;20080;-82
2021/03/08 07:36:57;;;;;;;23.60;14.45;;;1.30;94.60;;;;;;5094071;28;20100;-83
2021/03/08 07:39:26;;;;;;;25.13;13.82;;;1.30;94.80;;;;;;5093801;28;20075;-83
2021/03/08 07:41:55;;;;;;;23.15;13.45;;;1.30;95.00;;;;;;5093742;28;20072;-83
2021/03/08 07:44:25;;;;;;;19.85;12.10;;;1.30;95.30;;;;;;5094065;28;20048;-83
2021/03/08 07:46:53;;;;;;;21.10;12.43;;;1.30;95.50;;;;;;5076441;28;20162;-83
2021/03/08 07:49:33;;;;;;;23.45;13.27;;;1.40;95.50;;;;;;5075924;28;20044;-83
2021/03/08 07:52:05;;;;;;;21.98;13.23;;;1.50;95.40;;;;;;5075924;28;20083;-83
2021/03/08 07:54:56;;;;;;;24.58;13.23;;;1.50;95.40;;;;;;5076968;28;20071;-82
2021/03/08 07:57:26;;;;;;;20.60;13.32;;;1.60;95.50;;;;;;5092928;28;20052;-82
2021/03/08 07:59:53;;;;;;;21.85;12.98;;;1.60;95.40;;;;;;5093387;28;20091;-83
2021/03/08 08:02:20;;;;;;;23.40;13.30;;;1.70;95.20;;;;;;5093145;28;20079;-83
2021/03/08 08:04:48;;;;;;;20.30;12.43;;;1.70;95.20;;;;;;5093188;28;20052;-83
2021/03/08 08:07:18;;;;;;;22.67;13.50;;;1.80;95.30;;;;;;5093686;28;20056;-83
2021/03/08 08:09:48;;;;;;;28.83;16.80;;;1.90;95.40;;;;;;5093404;28;20135;-83
2021/03/08 08:12:19;;;;;;;25.17;14.57;;;2.00;95.20;;;;;;5093448;28;20098;-83
2021/03/08 08:14:46;;;;;;;22.25;13.10;;;2.10;95.00;;;;;;5093317;28;20139;-81
2021/03/08 08:17:16;;;;;;;21.92;13.18;;;2.20;94.90;;;;;;5092985;28;20135;-81
2021/03/08 08:19:46;;;;;;;23.60;14.02;;;2.30;94.80;;;;;;5074841;28;20056;-83
2021/03/08 08:22:20;;;;;;;21.83;13.02;;;2.30;94.70;;;;;;5092658;28;20059;-82
2021/03/08 08:24:48;;;;;;;25.13;14.45;;;2.40;94.50;;;;;;5092836;28;20071;-82
2021/03/08 08:27:18;;;;;;;22.98;14.02;;;2.50;94.30;;;;;;5093286;28;20454;-81
2021/03/08 08:29:46;;;;;;;22.80;14.35;;;2.60;94.10;;;;;;5075386;28;20051;-80
2021/03/08 08:32:15;;;;;;;22.90;14.57;;;2.70;94.00;;;;;;5097070;28;20044;-81
2021/03/08 08:34:43;;;;;;;23.67;13.68;;;2.70;93.60;;;;;;5102159;28;20123;-81
2021/03/08 08:37:14;;;;;;;23.10;13.77;;;2.70;93.90;;;;;;5084219;28;20516;-81
2021/03/08 08:39:43;;;;;;;22.73;14.10;;;2.70;93.90;;;;;;5098922;28;20097;-83
2021/03/08 08:42:19;;;;;;;23.45;14.73;;;2.70;94.00;;;;;;5093431;28;20570;-83
2021/03/08 08:44:47;;;;;;;23.42;13.75;;;2.80;93.40;;;;;;5074868;28;20048;-83
2021/03/08 08:47:28;;;;;;;21.67;13.55;;;2.80;93.30;;;;;;5093359;28;20158;-82
2021/03/08 08:49:59;;;;;;;25.55;15.77;;;2.80;92.90;;;;;;5075741;28;20072;-83
2021/03/08 08:52:51;;;;;;;23.40;14.30;;;3.00;92.50;;;;;;5092578;28;20044;-84
2021/03/08 08:55:23;;;;;;;23.38;14.43;;;2.90;92.80;;;;;;5058746;28;20050;-83
2021/03/08 08:58:21;;;;;;;28.13;16.33;;;2.90;93.10;;;;;;5092122;28;20056;-82
2021/03/08 09:04:15;;;;;;;24.60;14.45;;;2.90;93.20;;;;;;5092025;28;20135;-83
2021/03/08 09:06:53;;;;;;;21.98;13.60;;;3.00;93.10;;;;;;5091914;28;20085;-83
2021/03/08 09:09:23;;;;;;;24.02;14.38;;;3.00;93.10;;;;;;5075381;28;20044;-83
2021/03/08 09:11:56;;;;;;;27.15;13.85;;;3.10;93.10;;;;;;5074615;28;20075;-83
2021/03/08 09:14:40;;;;;;;22.27;13.40;;;3.20;93.10;;;;;;5092119;28;20049;-82
2021/03/08 09:17:22;;;;;;;23.30;13.27;;;3.20;93.00;;;;;;5091791;28;20048;-83
2021/03/08 09:20:12;;;;;;;23.73;13.10;;;3.20;92.40;;;;;;5092166;28;20139;-83
2021/03/08 09:22:47;;;;;;;22.00;13.10;;;3.30;92.50;;;;;;5092269;28;20087;-83
2021/03/08 09:25:26;;;;;;;22.23;13.40;;;3.40;92.40;;;;;;5092717;28;20051;-82
2021/03/08 09:28:10;;;;;;;18.63;12.07;;;3.50;92.40;;;;;;5092018;28;20082;-82
2021/03/08 09:30:40;;;;;;;21.83;13.30;;;3.60;92.10;;;;;;5091690;28;20044;-82
2021/03/08 09:33:13;;;;;;;23.80;13.50;;;3.60;91.90;;;;;;5091545;28;20056;-84
2021/03/08 09:35:45;;;;;;;20.33;13.07;;;3.70;91.70;;;;;;5091671;28;20135;-83
2021/03/08 09:38:15;;;;;;;21.77;13.30;;;3.80;91.50;;;;;;5090231;28;20101;-83
2021/03/08 09:40:45;;;;;;;19.75;12.57;;;3.90;91.40;;;;;;5091642;28;20048;-82
2021/03/08 09:43:24;;;;;;;21.10;12.98;;;4.00;91.20;;;;;;5091711;28;20127;-83
2021/03/08 09:46:02;;;;;;;23.13;14.00;;;4.00;91.10;;;;;;5091180;28;20109;-82
2021/03/08 09:48:34;;;;;;;20.58;12.30;;;4.10;91.00;;;;;;5091740;28;20433;-82
2021/03/08 09:51:10;;;;;;;22.98;13.88;;;4.20;90.50;;;;;;5073918;28;20047;-82
2021/03/08 09:53:40;;;;;;;19.27;12.93;;;4.30;90.30;;;;;;5072872;28;20050;-83
2021/03/08 09:56:10;;;;;;;22.95;14.40;;;4.30;89.80;;;;;;5091103;28;20140;-82
2021/03/08 09:58:37;;;;;;;20.63;13.85;;;4.30;89.80;;;;;;5091013;28;20061;-82
2021/03/08 10:01:13;;;;;;;21.75;13.38;;;4.40;89.50;;;;;;5091104;28;20059;-83
2021/03/08 10:03:40;;;;;;;21.92;12.55;;;4.40;89.30;;;;;;5091496;28;20044;-82
2021/03/08 10:06:07;;;;;;;19.02;11.88;;;4.50;89.00;;;;;;5091145;28;20481;-82
2021/03/08 10:08:34;;;;;;;20.83;13.05;;;4.50;88.50;;;;;;5072846;28;20084;-82
2021/03/08 10:11:01;;;;;;;19.27;11.80;;;4.60;88.00;;;;;;5091017;28;20044;-82
2021/03/08 10:13:28;;;;;;;20.30;13.20;;;4.70;87.90;;;;;;5072655;28;20108;-82
2021/03/08 10:15:57;;;;;;;21.15;12.98;;;4.70;87.30;;;;;;5090810;28;20051;-82
2021/03/08 10:18:28;;;;;;;21.48;13.48;;;4.60;87.50;;;;;;5090999;28;20549;-82
2021/03/08 10:20:57;;;;;;;20.20;11.73;;;4.80;85.90;;;;;;5091022;28;20213;-82
2021/03/08 10:23:26;;;;;;;22.90;13.15;;;4.80;86.30;;;;;;5072526;28;20048;-82
2021/03/08 10:26:04;;;;;;;21.13;13.13;;;4.80;85.40;;;;;;5091244;28;20135;-82
2021/03/08 10:28:38;;;;;;;19.55;13.05;;;4.90;85.50;;;;;;5074725;28;20048;-82
2021/03/08 10:31:06;;;;;;;19.05;12.25;;;4.90;85.30;;;;;;5072716;28;20170;-82
2021/03/08 10:33:33;;;;;;;19.38;12.65;;;5.00;85.20;;;;;;5090944;28;20055;-82
2021/03/08 10:36:01;;;;;;;19.20;11.27;;;5.10;84.90;;;;;;5091296;28;20040;-82
2021/03/08 10:38:32;;;;;;;20.02;13.35;;;5.10;85.10;;;;;;5073220;28;20140;-82
2021/03/08 10:41:01;;;;;;;19.67;12.15;;;5.30;82.70;;;;;;5073394;28;20056;-82
2021/03/08 10:43:30;;;;;;;21.27;13.38;;;5.30;83.60;;;;;;5090927;28;20052;-82
2021/03/08 10:46:00;;;;;;;19.60;12.13;;;5.40;82.50;;;;;;5090819;28;20045;-82
2021/03/08 10:48:28;;;;;;;18.58;12.57;;;5.40;82.70;;;;;;5090698;28;20135;-82
2021/03/08 10:50:56;;;;;;;16.27;11.20;;;5.40;82.90;;;;;;5090864;28;20101;-82
2021/03/08 10:53:25;;;;;;;17.48;11.82;;;5.50;83.10;;;;;;5090798;28;20131;-82
2021/03/08 10:55:53;;;;;;;15.63;9.82;;;5.60;82.60;;;;;;5091029;28;20491;-82
2021/03/08 10:58:34;;;;;;;14.10;9.73;;;5.70;80.90;;;;;;5090198;28;20129;-81
2021/03/08 11:01:13;;;;;;;14.63;9.55;;;5.70;78.80;;;;;;5089683;28;20055;-81
2021/03/08 11:03:43;;;;;;;14.35;9.20;;;5.80;80.10;;;;;;5072554;28;20075;-82
2021/03/08 11:06:11;;;;;;;14.25;9.63;;;5.90;79.50;;;;;;5092841;28;20202;-81
2021/03/08 11:08:40;;;;;;;14.32;10.05;;;6.00;79.10;;;;;;5094614;28;20048;-82
2021/03/08 11:11:17;;;;;;;14.27;9.20;;;6.10;77.40;;;;;;5094207;28;20080;-82
2021/03/08 11:13:45;;;;;;;13.60;9.63;;;6.10;76.80;;;;;;5074214;28;20137;-82
2021/03/08 11:16:14;;;;;;;14.18;10.10;;;6.20;75.40;;;;;;5039351;28;20070;-81
2021/03/08 11:18:43;;;;;;;14.45;9.55;;;6.30;74.50;;;;;;5073905;28;20131;-82
2021/03/08 11:21:24;;;;;;;13.50;8.52;;;6.30;70.50;;;;;;5086040;28;20142;-82
2021/03/08 11:23:52;;;;;;;11.38;7.80;;;6.30;69.70;;;;;;5076813;28;20055;-81
2021/03/08 11:26:20;;;;;;;15.50;10.15;;;6.40;70.80;;;;;;5093341;28;20056;-81
2021/03/08 11:28:46;;;;;;;16.73;10.70;;;6.50;70.70;;;;;;5093696;28;20052;-82
2021/03/08 11:31:22;;;;;;;15.15;9.57;;;6.60;70.00;;;;;;5093897;28;20136;-82
2021/03/08 11:33:50;;;;;;;14.40;9.05;;;6.60;68.50;;;;;;5094013;28;20079;-82
2021/03/08 11:36:34;;;;;;;14.10;9.98;;;6.70;68.50;;;;;;5093723;28;20135;-81
2021/03/08 11:39:04;;;;;;;13.02;9.10;;;6.80;66.20;;;;;;5093635;28;20177;-81
2021/03/08 11:41:30;;;;;;;12.60;9.00;;;6.90;65.80;;;;;;5075737;28;20052;-81
2021/03/08 11:43:57;;;;;;;14.05;8.90;;;7.00;65.50;;;;;;5093760;28;20127;-81
2021/03/08 11:46:25;;;;;;;12.88;8.05;;;7.00;66.10;;;;;;5093675;28;20075;-81
2021/03/08 11:49:01;;;;;;;11.13;8.07;;;7.10;65.20;;;;;;5093606;28;20086;-81
2021/03/08 11:51:28;;;;;;;11.38;7.32;;;7.20;64.80;;;;;;5093615;28;20136;-81
2021/03/08 11:53:55;;;;;;;12.18;8.00;;;7.30;64.60;;;;;;5093446;28;20075;-81
2021/03/08 11:56:25;;;;;;;11.57;8.30;;;7.50;62.70;;;;;;5093129;28;20438;-81
2021/03/08 11:58:53;;;;;;;14.23;9.73;;;7.40;60.70;;;;;;5092968;28;20059;-81
2021/03/08 12:01:20;;;;;;;12.30;8.32;;;7.60;59.30;;;;;;5075661;28;20052;-81
2021/03/08 12:03:47;;;;;;;12.13;7.93;;;7.70;59.70;;;;;;5075444;28;20122;-82
2021/03/08 12:06:14;;;;;;;13.70;9.85;;;7.70;59.30;;;;;;5093475;28;20123;-81
2021/03/08 12:08:41;;;;;;;16.00;10.02;;;7.90;58.60;;;;;;5075240;28;20135;-82
2021/03/08 12:11:08;;;;;;;16.13;10.60;;;8.00;58.60;;;;;;5074691;28;20048;-81
2021/03/08 12:13:34;;;;;;;11.98;8.40;;;8.10;58.70;;;;;;5093504;28;20072;-82
2021/03/08 12:16:01;;;;;;;11.52;7.85;;;8.20;57.50;;;;;;5092648;28;20560;-81
2021/03/08 12:18:28;;;;;;;12.07;8.40;;;8.40;57.20;;;;;;5074012;28;20093;-81
2021/03/08 12:20:55;;;;;;;11.35;7.68;;;8.50;57.30;;;;;;5092079;28;20062;-81
2021/03/08 12:23:22;;;;;;;11.70;8.30;;;8.70;56.40;;;;;;5093170;28;20138;-81
2021/03/08 12:25:49;;;;;;;12.73;8.38;;;8.80;55.10;;;;;;5075252;28;20080;-81
2021/03/08 12:28:16;;;;;;;13.02;9.13;;;9.00;55.10;;;;;;5071143;28;20413;-81
2021/03/08 12:30:42;;;;;;;10.95;7.72;;;9.20;52.80;;;;;;5071985;28;20518;-81
2021/03/08 12:33:09;;;;;;;12.50;9.07;;;9.20;53.80;;;;;;5072311;28;20127;-81
2021/03/08 12:35:35;;;;;;;11.75;7.82;;;9.40;53.20;;;;;;5072219;28;20135;-81
2021/03/08 12:38:03;;;;;;;10.70;7.20;;;9.50;52.80;;;;;;5072275;28;20044;-82
2021/03/08 12:40:30;;;;;;;10.15;7.22;;;9.50;52.50;;;;;;5071958;28;20127;-81
2021/03/08 12:42:56;;;;;;;12.32;7.93;;;9.70;52.90;;;;;;5074068;28;20076;-81
2021/03/08 12:45:24;;;;;;;12.40;8.23;;;9.80;51.90;;;;;;5092001;28;20131;-81
2021/03/08 12:47:51;;;;;;;11.93;8.23;;;10.10;50.60;;;;;;5092326;28;20127;-81
2021/03/08 12:50:18;;;;;;;12.80;8.30;;;10.20;49.50;;;;;;5092057;28;20123;-81
2021/03/08 12:52:44;;;;;;;11.07;7.85;;;10.20;49.00;;;;;;5092272;28;20135;-81
2021/03/08 12:55:14;;;;;;;12.00;8.27;;;10.30;49.00;;;;;;5073661;28;20048;-81
2021/03/08 12:57:41;;;;;;;11.15;7.50;;;10.40;47.90;;;;;;5073873;28;20052;-81
2021/03/08 13:00:09;;;;;;;9.35;6.90;;;10.50;48.10;;;;;;5053833;28;20048;-81